This is the latest recevied weather packets stored in our database for station/object W4DEX-2. If no packets are shown the sender has not sent any weather packets the latest 10 day(s).
| Time | Temp. | Humidity | Pressure | Rain* | Wind** | Luminosity | Snow |
|---|---|---|---|---|---|---|---|
| 1777819802 | 13.89° C | 34% | 1019.3 hPa | 0 mm | 3.58 m/s, 155° | - | - |
| 1777819503 | 13.89° C | 32% | 1019.3 hPa | 0 mm | 2.68 m/s, 158° | - | - |
| 1777819203 | 13.33° C | 35% | 1019.1 hPa | 0 mm | 4.02 m/s, 182° | - | - |
| 1777818903 | 13.33° C | 35% | 1019.3 hPa | 0 mm | 4.47 m/s, 165° | - | - |
| 1777818302 | 12.78° C | 35% | 1019.1 hPa | 0 mm | 1.34 m/s, 141° | - | - |
| 1777818002 | 12.78° C | 35% | 1019.2 hPa | 0 mm | 4.47 m/s, 180° | - | - |
| 1777817703 | 13.33° C | 37% | 1019.2 hPa | 0 mm | 3.58 m/s, 174° | - | - |
| 1777817402 | 12.78° C | 37% | 1019.2 hPa | 0 mm | 3.58 m/s, 179° | - | - |
| 1777816803 | 12.22° C | 40% | 1019.1 hPa | 0 mm | 3.58 m/s, 163° | - | - |
| 1777816502 | 12.22° C | 43% | 1019.1 hPa | 0 mm | 4.47 m/s, 200° | - | - |
| 1777816202 | 12.22° C | 45% | 1019.1 hPa | 0 mm | 3.13 m/s, 173° | - | - |
| 1777815602 | 11.67° C | 44% | 1019.1 hPa | 0 mm | 3.13 m/s, 182° | - | - |
| 1777815302 | 11.67° C | 46% | 1019.1 hPa | 0 mm | 3.13 m/s, 160° | - | - |
| 1777814102 | 10.56° C | 54% | 1019 hPa | 0 mm | 3.13 m/s, 171° | - | - |
| 1777813802 | 10° C | 55% | 1019 hPa | 0 mm | 4.02 m/s, 174° | - | - |
| 1777812902 | 9.44° C | 57% | 1019.2 hPa | 0 mm | 4.92 m/s, 173° | - | - |
| 1777812602 | 8.89° C | 57% | 1019.1 hPa | 0 mm | 3.13 m/s, 173° | - | - |
| 1777811402 | 8.33° C | 62% | 1019.1 hPa | 0 mm | 4.92 m/s, 175° | - | - |
| 1777811102 | 7.78° C | 66% | 1018.7 hPa | 0 mm | 3.58 m/s, 178° | - | - |
| 1777810202 | 6.67° C | 67% | 1018.9 hPa | 0 mm | 3.13 m/s, 176° | - | - |
| 1777809902 | 6.67° C | 69% | 1018.9 hPa | 0 mm | 3.58 m/s, 173° | - | - |
| 1777809002 | 6.11° C | 69% | 1019 hPa | 0 mm | 2.24 m/s, 171° | - | - |
| 1777808702 | 5.56° C | 69% | 1018.6 hPa | 0 mm | 2.68 m/s, 170° | - | - |
| 1777808102 | 5.56° C | 70% | 1018.6 hPa | 0 mm | 3.13 m/s, 167° | - | - |
| 1777807802 | 5° C | 71% | 1018.6 hPa | 0 mm | 2.24 m/s, 170° | - | - |
* Rain latest hour (hover to see other rain measurements)
** Current wind speed in m/s (hover to see current wind gust speed)